sensor_id;sensor_type;location;lat;lon;timestamp;pressure;altitude;pressure_sealevel;temperature;humidity
54872;BME280;43914;57.680;11.982;2023-05-02T00:00:33;100169.77;;;4.31;100.00
54872;BME280;43914;57.680;11.982;2023-05-02T00:03:01;100173.05;;;4.30;100.00
54872;BME280;43914;57.680;11.982;2023-05-02T00:05:28;100177.90;;;4.29;100.00
54872;BME280;43914;57.680;11.982;2023-05-02T00:07:54;100186.17;;;4.28;100.00
54872;BME280;43914;57.680;11.982;2023-05-02T00:10:20;100189.17;;;4.27;100.00
54872;BME280;43914;57.680;11.982;2023-05-02T00:12:45;100193.41;;;4.25;100.00
54872;BME280;43914;57.680;11.982;2023-05-02T00:15:11;100194.21;;;4.23;100.00
54872;BME280;43914;57.680;11.982;2023-05-02T00:17:39;100192.95;;;4.19;100.00
54872;BME280;43914;57.680;11.982;2023-05-02T00:20:10;100198.56;;;4.18;100.00
54872;BME280;43914;57.680;11.982;2023-05-02T00:22:55;100196.52;;;4.14;100.00
54872;BME280;43914;57.680;11.982;2023-05-02T00:25:21;100198.06;;;4.11;100.00
54872;BME280;43914;57.680;11.982;2023-05-02T00:27:48;100203.04;;;4.09;100.00
54872;BME280;43914;57.680;11.982;2023-05-02T00:30:16;100204.98;;;4.07;100.00
54872;BME280;43914;57.680;11.982;2023-05-02T00:32:43;100201.68;;;4.04;100.00
54872;BME280;43914;57.680;11.982;2023-05-02T00:35:09;100205.00;;;4.01;100.00
54872;BME280;43914;57.680;11.982;2023-05-02T00:37:35;100214.48;;;3.99;100.00
54872;BME280;43914;57.680;11.982;2023-05-02T00:40:01;100221.23;;;3.97;100.00
54872;BME280;43914;57.680;11.982;2023-05-02T00:42:27;100221.52;;;3.94;100.00
54872;BME280;43914;57.680;11.982;2023-05-02T00:44:56;100224.20;;;3.92;100.00
54872;BME280;43914;57.680;11.982;2023-05-02T00:47:21;100227.73;;;3.87;100.00
54872;BME280;43914;57.680;11.982;2023-05-02T00:49:49;100231.44;;;3.87;100.00
54872;BME280;43914;57.680;11.982;2023-05-02T00:52:15;100226.35;;;3.83;100.00
54872;BME280;43914;57.680;11.982;2023-05-02T00:54:40;100233.58;;;3.80;100.00
54872;BME280;43914;57.680;11.982;2023-05-02T00:57:07;100232.70;;;3.76;100.00
54872;BME280;43914;57.680;11.982;2023-05-02T00:59:34;100237.10;;;3.72;100.00
54872;BME280;43914;57.680;11.982;2023-05-02T01:05:05;100239.42;;;3.69;100.00
54872;BME280;43914;57.680;11.982;2023-05-02T01:10:57;100246.09;;;3.62;100.00
54872;BME280;43914;57.680;11.982;2023-05-02T01:13:31;100245.67;;;3.61;100.00
54872;BME280;43914;57.680;11.982;2023-05-02T01:15:58;100253.34;;;3.58;100.00
54872;BME280;43914;57.680;11.982;2023-05-02T01:18:31;100263.27;;;3.58;100.00
54872;BME280;43914;57.680;11.982;2023-05-02T01:21:02;100266.72;;;3.57;100.00
54872;BME280;43914;57.680;11.982;2023-05-02T01:29:07;100276.39;;;3.51;100.00
54872;BME280;43914;57.680;11.982;2023-05-02T01:31:37;100284.99;;;3.48;100.00
54872;BME280;43914;57.680;11.982;2023-05-02T01:34:05;100286.66;;;3.45;100.00
54872;BME280;43914;57.680;11.982;2023-05-02T01:36:35;100290.57;;;3.41;100.00
54872;BME280;43914;57.680;11.982;2023-05-02T01:39:02;100298.23;;;3.41;100.00
54872;BME280;43914;57.680;11.982;2023-05-02T01:41:32;100299.48;;;3.37;100.00
54872;BME280;43914;57.680;11.982;2023-05-02T01:44:01;100305.14;;;3.34;100.00
54872;BME280;43914;57.680;11.982;2023-05-02T01:46:30;100310.90;;;3.35;100.00
54872;BME280;43914;57.680;11.982;2023-05-02T01:49:00;100319.66;;;3.34;100.00
54872;BME280;43914;57.680;11.982;2023-05-02T01:51:31;100319.48;;;3.32;100.00
54872;BME280;43914;57.680;11.982;2023-05-02T01:54:04;100320.34;;;3.29;100.00
54872;BME280;43914;57.680;11.982;2023-05-02T01:56:34;100319.08;;;3.27;100.00
54872;BME280;43914;57.680;11.982;2023-05-02T01:59:05;100321.59;;;3.21;100.00
54872;BME280;43914;57.680;11.982;2023-05-02T02:01:34;100322.52;;;3.18;100.00
54872;BME280;43914;57.680;11.982;2023-05-02T02:04:00;100323.07;;;3.16;100.00
54872;BME280;43914;57.680;11.982;2023-05-02T02:06:26;100318.77;;;3.13;100.00
54872;BME280;43914;57.680;11.982;2023-05-02T02:08:53;100323.33;;;3.12;100.00
54872;BME280;43914;57.680;11.982;2023-05-02T02:11:26;100330.38;;;3.10;100.00
54872;BME280;43914;57.680;11.982;2023-05-02T02:14:06;100335.88;;;3.06;100.00
54872;BME280;43914;57.680;11.982;2023-05-02T02:16:36;100335.22;;;3.04;100.00
54872;BME280;43914;57.680;11.982;2023-05-02T02:19:09;100340.92;;;3.05;100.00
54872;BME280;43914;57.680;11.982;2023-05-02T02:21:35;100342.55;;;3.07;100.00
54872;BME280;43914;57.680;11.982;2023-05-02T02:24:04;100343.94;;;3.07;100.00
54872;BME280;43914;57.680;11.982;2023-05-02T02:26:31;100348.96;;;3.06;100.00
54872;BME280;43914;57.680;11.982;2023-05-02T02:28:59;100356.59;;;3.06;100.00
54872;BME280;43914;57.680;11.982;2023-05-02T02:31:35;100357.45;;;3.05;100.00
54872;BME280;43914;57.680;11.982;2023-05-02T02:34:04;100356.29;;;3.04;100.00
54872;BME280;43914;57.680;11.982;2023-05-02T02:36:35;100349.04;;;3.02;100.00
54872;BME280;43914;57.680;11.982;2023-05-02T02:41:55;100357.17;;;2.96;100.00
54872;BME280;43914;57.680;11.982;2023-05-02T02:44:28;100363.15;;;2.97;100.00
54872;BME280;43914;57.680;11.982;2023-05-02T02:47:05;100362.89;;;2.96;100.00
54872;BME280;43914;57.680;11.982;2023-05-02T02:53:01;100370.73;;;2.93;100.00
54872;BME280;43914;57.680;11.982;2023-05-02T02:55:39;100373.11;;;2.92;100.00
54872;BME280;43914;57.680;11.982;2023-05-02T03:01:12;100379.10;;;2.89;100.00
54872;BME280;43914;57.680;11.982;2023-05-02T03:03:40;100384.61;;;2.86;100.00
54872;BME280;43914;57.680;11.982;2023-05-02T03:06:07;100387.69;;;2.86;100.00
54872;BME280;43914;57.680;11.982;2023-05-02T03:08:40;100390.27;;;2.83;100.00
54872;BME280;43914;57.680;11.982;2023-05-02T03:11:06;100395.77;;;2.81;100.00
54872;BME280;43914;57.680;11.982;2023-05-02T03:13:34;100397.05;;;2.78;100.00
54872;BME280;43914;57.680;11.982;2023-05-02T03:16:32;100396.44;;;2.77;100.00
54872;BME280;43914;57.680;11.982;2023-05-02T03:18:58;100395.11;;;2.74;100.00
54872;BME280;43914;57.680;11.982;2023-05-02T03:21:24;100397.63;;;2.72;100.00
54872;BME280;43914;57.680;11.982;2023-05-02T03:23:49;100404.33;;;2.72;100.00
54872;BME280;43914;57.680;11.982;2023-05-02T03:26:16;100406.79;;;2.70;100.00
54872;BME280;43914;57.680;11.982;2023-05-02T03:28:41;100409.53;;;2.69;100.00
54872;BME280;43914;57.680;11.982;2023-05-02T03:31:11;100410.98;;;2.69;100.00
54872;BME280;43914;57.680;11.982;2023-05-02T03:33:38;100413.90;;;2.68;100.00
54872;BME280;43914;57.680;11.982;2023-05-02T03:36:03;100415.63;;;2.69;100.00
54872;BME280;43914;57.680;11.982;2023-05-02T03:38:30;100418.20;;;2.70;100.00
54872;BME280;43914;57.680;11.982;2023-05-02T03:40:56;100423.14;;;2.70;100.00
54872;BME280;43914;57.680;11.982;2023-05-02T03:43:22;100421.17;;;2.69;100.00
54872;BME280;43914;57.680;11.982;2023-05-02T03:45:48;100423.00;;;2.69;100.00
54872;BME280;43914;57.680;11.982;2023-05-02T03:48:13;100433.77;;;2.69;100.00
54872;BME280;43914;57.680;11.982;2023-05-02T03:50:39;100429.23;;;2.69;100.00
54872;BME280;43914;57.680;11.982;2023-05-02T03:53:08;100433.08;;;2.69;100.00
54872;BME280;43914;57.680;11.982;2023-05-02T03:55:41;100435.54;;;2.70;100.00
54872;BME280;43914;57.680;11.982;2023-05-02T03:58:09;100444.22;;;2.69;100.00
54872;BME280;43914;57.680;11.982;2023-05-02T04:00:35;100449.27;;;2.70;100.00
54872;BME280;43914;57.680;11.982;2023-05-02T04:03:03;100452.98;;;2.70;100.00
54872;BME280;43914;57.680;11.982;2023-05-02T04:05:29;100452.38;;;2.71;100.00
54872;BME280;43914;57.680;11.982;2023-05-02T04:07:55;100454.58;;;2.72;100.00
54872;BME280;43914;57.680;11.982;2023-05-02T04:10:21;100460.11;;;2.73;100.00
54872;BME280;43914;57.680;11.982;2023-05-02T04:12:47;100461.28;;;2.76;100.00
54872;BME280;43914;57.680;11.982;2023-05-02T04:15:13;100465.49;;;2.79;100.00
54872;BME280;43914;57.680;11.982;2023-05-02T04:17:39;100469.96;;;2.80;100.00
54872;BME280;43914;57.680;11.982;2023-05-02T04:20:05;100469.19;;;2.81;100.00
54872;BME280;43914;57.680;11.982;2023-05-02T04:22:34;100474.05;;;2.84;100.00
54872;BME280;43914;57.680;11.982;2023-05-02T04:25:01;100478.43;;;2.86;100.00
54872;BME280;43914;57.680;11.982;2023-05-02T04:27:26;100484.40;;;2.88;100.00
54872;BME280;43914;57.680;11.982;2023-05-02T04:29:52;100488.23;;;2.91;100.00
54872;BME280;43914;57.680;11.982;2023-05-02T04:32:18;100490.57;;;2.95;100.00
54872;BME280;43914;57.680;11.982;2023-05-02T04:34:44;100494.23;;;2.97;100.00
54872;BME280;43914;57.680;11.982;2023-05-02T04:37:09;100499.06;;;3.01;100.00
54872;BME280;43914;57.680;11.982;2023-05-02T04:39:35;100504.73;;;3.05;100.00
54872;BME280;43914;57.680;11.982;2023-05-02T04:42:00;100508.29;;;3.08;100.00
54872;BME280;43914;57.680;11.982;2023-05-02T04:44:26;100506.73;;;3.12;100.00
54872;BME280;43914;57.680;11.982;2023-05-02T04:46:52;100513.55;;;3.15;100.00
54872;BME280;43914;57.680;11.982;2023-05-02T04:49:18;100512.52;;;3.18;100.00
54872;BME280;43914;57.680;11.982;2023-05-02T04:51:44;100520.02;;;3.25;100.00
54872;BME280;43914;57.680;11.982;2023-05-02T04:54:10;100525.84;;;3.33;100.00
54872;BME280;43914;57.680;11.982;2023-05-02T04:56:36;100529.64;;;3.44;100.00
54872;BME280;43914;57.680;11.982;2023-05-02T04:59:02;100531.95;;;3.48;100.00
54872;BME280;43914;57.680;11.982;2023-05-02T05:01:28;100536.94;;;3.53;100.00
54872;BME280;43914;57.680;11.982;2023-05-02T05:03:54;100543.21;;;3.58;100.00
54872;BME280;43914;57.680;11.982;2023-05-02T05:06:20;100542.38;;;3.61;100.00
54872;BME280;43914;57.680;11.982;2023-05-02T05:08:47;100542.70;;;3.66;100.00
54872;BME280;43914;57.680;11.982;2023-05-02T05:11:13;100550.88;;;3.71;100.00
54872;BME280;43914;57.680;11.982;2023-05-02T05:13:40;100548.70;;;3.71;100.00
54872;BME280;43914;57.680;11.982;2023-05-02T05:16:06;100556.69;;;3.75;100.00
54872;BME280;43914;57.680;11.982;2023-05-02T05:18:32;100561.18;;;3.74;100.00
54872;BME280;43914;57.680;11.982;2023-05-02T05:21:06;100563.35;;;3.76;100.00
54872;BME280;43914;57.680;11.982;2023-05-02T05:23:32;100568.38;;;3.77;100.00
54872;BME280;43914;57.680;11.982;2023-05-02T05:26:08;100571.52;;;3.80;100.00
54872;BME280;43914;57.680;11.982;2023-05-02T05:28:34;100575.44;;;3.83;100.00
54872;BME280;43914;57.680;11.982;2023-05-02T05:31:04;100579.67;;;3.87;100.00
54872;BME280;43914;57.680;11.982;2023-05-02T05:33:31;100582.61;;;3.94;100.00
54872;BME280;43914;57.680;11.982;2023-05-02T05:36:03;100582.58;;;4.00;100.00
54872;BME280;43914;57.680;11.982;2023-05-02T05:38:28;100582.56;;;4.00;100.00
54872;BME280;43914;57.680;11.982;2023-05-02T05:40:54;100588.07;;;4.00;100.00
54872;BME280;43914;57.680;11.982;2023-05-02T05:43:20;100587.80;;;4.05;100.00
54872;BME280;43914;57.680;11.982;2023-05-02T05:45:46;100587.85;;;4.08;100.00
54872;BME280;43914;57.680;11.982;2023-05-02T05:48:11;100588.89;;;4.12;100.00
54872;BME280;43914;57.680;11.982;2023-05-02T05:50:36;100595.69;;;4.15;100.00
54872;BME280;43914;57.680;11.982;2023-05-02T05:53:02;100596.16;;;4.17;100.00
54872;BME280;43914;57.680;11.982;2023-05-02T05:55:30;100597.66;;;4.22;100.00
54872;BME280;43914;57.680;11.982;2023-05-02T05:57:56;100603.85;;;4.28;100.00
54872;BME280;43914;57.680;11.982;2023-05-02T06:00:21;100611.74;;;4.33;100.00
54872;BME280;43914;57.680;11.982;2023-05-02T06:02:46;100615.20;;;4.38;100.00
54872;BME280;43914;57.680;11.982;2023-05-02T06:05:12;100622.06;;;4.40;100.00
54872;BME280;43914;57.680;11.982;2023-05-02T06:07:37;100622.52;;;4.43;100.00
54872;BME280;43914;57.680;11.982;2023-05-02T06:10:03;100631.21;;;4.46;100.00
54872;BME280;43914;57.680;11.982;2023-05-02T06:12:29;100633.67;;;4.49;99.84
54872;BME280;43914;57.680;11.982;2023-05-02T06:14:55;100637.39;;;4.49;99.38
54872;BME280;43914;57.680;11.982;2023-05-02T06:17:20;100640.16;;;4.52;98.85
54872;BME280;43914;57.680;11.982;2023-05-02T06:19:46;100646.21;;;4.49;96.62
54872;BME280;43914;57.680;11.982;2023-05-02T06:22:12;100652.33;;;4.46;96.09
54872;BME280;43914;57.680;11.982;2023-05-02T06:24:38;100653.96;;;4.46;96.71
54872;BME280;43914;57.680;11.982;2023-05-02T06:27:03;100662.42;;;4.50;97.88
54872;BME280;43914;57.680;11.982;2023-05-02T06:29:29;100669.86;;;4.56;97.77
54872;BME280;43914;57.680;11.982;2023-05-02T06:31:55;100669.60;;;4.59;96.34
54872;BME280;43914;57.680;11.982;2023-05-02T06:34:21;100676.98;;;4.65;96.98
54872;BME280;43914;57.680;11.982;2023-05-02T06:36:46;100679.11;;;4.69;96.28
54872;BME280;43914;57.680;11.982;2023-05-02T06:39:12;100685.98;;;4.75;95.98
54872;BME280;43914;57.680;11.982;2023-05-02T06:41:37;100686.27;;;4.78;95.50
54872;BME280;43914;57.680;11.982;2023-05-02T06:44:03;100688.67;;;4.82;93.35
54872;BME280;43914;57.680;11.982;2023-05-02T06:46:29;100694.63;;;4.83;93.42
54872;BME280;43914;57.680;11.982;2023-05-02T06:48:57;100702.48;;;4.87;94.01
54872;BME280;43914;57.680;11.982;2023-05-02T06:51:23;100706.40;;;4.94;95.54
54872;BME280;43914;57.680;11.982;2023-05-02T06:53:48;100700.89;;;5.01;96.13
54872;BME280;43914;57.680;11.982;2023-05-02T06:56:14;100711.42;;;5.12;95.92
54872;BME280;43914;57.680;11.982;2023-05-02T06:58:39;100714.48;;;5.15;92.46
54872;BME280;43914;57.680;11.982;2023-05-02T07:01:05;100719.19;;;5.16;90.86
54872;BME280;43914;57.680;11.982;2023-05-02T07:03:30;100720.67;;;5.21;91.15
54872;BME280;43914;57.680;11.982;2023-05-02T07:05:56;100730.63;;;5.28;90.50
54872;BME280;43914;57.680;11.982;2023-05-02T07:08:22;100730.70;;;5.33;89.31
54872;BME280;43914;57.680;11.982;2023-05-02T07:10:49;100738.36;;;5.38;89.34
54872;BME280;43914;57.680;11.982;2023-05-02T07:13:14;100740.40;;;5.45;88.43
54872;BME280;43914;57.680;11.982;2023-05-02T07:15:40;100737.23;;;5.46;83.51
54872;BME280;43914;57.680;11.982;2023-05-02T07:18:05;100743.02;;;5.49;81.06
54872;BME280;43914;57.680;11.982;2023-05-02T07:20:31;100747.14;;;5.49;76.76
54872;BME280;43914;57.680;11.982;2023-05-02T07:22:56;100747.27;;;5.53;78.75
54872;BME280;43914;57.680;11.982;2023-05-02T07:25:22;100750.99;;;5.58;79.34
54872;BME280;43914;57.680;11.982;2023-05-02T07:27:47;100755.23;;;5.64;81.03
54872;BME280;43914;57.680;11.982;2023-05-02T07:30:13;100753.77;;;5.69;78.76
54872;BME280;43914;57.680;11.982;2023-05-02T07:32:38;100762.94;;;5.73;80.89
54872;BME280;43914;57.680;11.982;2023-05-02T07:35:04;100764.68;;;5.77;76.34
54872;BME280;43914;57.680;11.982;2023-05-02T07:37:32;100767.17;;;5.80;75.25
54872;BME280;43914;57.680;11.982;2023-05-02T07:39:59;100766.09;;;5.82;74.78
54872;BME280;43914;57.680;11.982;2023-05-02T07:42:28;100770.33;;;5.86;74.65
54872;BME280;43914;57.680;11.982;2023-05-02T07:44:54;100776.13;;;5.90;71.99
54872;BME280;43914;57.680;11.982;2023-05-02T07:47:19;100781.41;;;5.95;72.68
54872;BME280;43914;57.680;11.982;2023-05-02T07:49:50;100785.51;;;5.98;70.32
54872;BME280;43914;57.680;11.982;2023-05-02T07:52:15;100789.79;;;6.00;70.13
54872;BME280;43914;57.680;11.982;2023-05-02T07:54:41;100790.92;;;6.01;69.39
54872;BME280;43914;57.680;11.982;2023-05-02T07:57:07;100792.20;;;5.99;68.85
54872;BME280;43914;57.680;11.982;2023-05-02T07:59:33;100799.34;;;6.08;67.66
54872;BME280;43914;57.680;11.982;2023-05-02T08:01:58;100800.27;;;6.15;66.79
54872;BME280;43914;57.680;11.982;2023-05-02T08:04:24;100802.21;;;6.22;67.67
54872;BME280;43914;57.680;11.982;2023-05-02T08:06:50;100803.50;;;6.29;66.30
54872;BME280;43914;57.680;11.982;2023-05-02T08:09:16;100813.60;;;6.36;65.97
54872;BME280;43914;57.680;11.982;2023-05-02T08:11:41;100811.54;;;6.38;62.16
54872;BME280;43914;57.680;11.982;2023-05-02T08:14:07;100814.25;;;6.37;58.31
54872;BME280;43914;57.680;11.982;2023-05-02T08:16:32;100812.98;;;6.37;57.35
54872;BME280;43914;57.680;11.982;2023-05-02T08:18:58;100822.27;;;6.41;56.62
54872;BME280;43914;57.680;11.982;2023-05-02T08:21:23;100821.42;;;6.45;58.27
54872;BME280;43914;57.680;11.982;2023-05-02T08:23:49;100827.00;;;6.50;58.47
54872;BME280;43914;57.680;11.982;2023-05-02T08:26:15;100833.68;;;6.51;54.00
54872;BME280;43914;57.680;11.982;2023-05-02T08:28:43;100834.29;;;6.47;53.98
54872;BME280;43914;57.680;11.982;2023-05-02T08:31:09;100837.65;;;6.47;53.96
54872;BME280;43914;57.680;11.982;2023-05-02T08:33:35;100838.07;;;6.48;54.60
54872;BME280;43914;57.680;11.982;2023-05-02T08:36:09;100842.86;;;6.50;55.30
54872;BME280;43914;57.680;11.982;2023-05-02T08:38:35;100846.44;;;6.53;53.74
54872;BME280;43914;57.680;11.982;2023-05-02T08:41:00;100846.88;;;6.54;54.32
54872;BME280;43914;57.680;11.982;2023-05-02T08:43:27;100850.94;;;6.55;55.08
54872;BME280;43914;57.680;11.982;2023-05-02T08:45:58;100856.48;;;6.61;55.41
54872;BME280;43914;57.680;11.982;2023-05-02T08:48:24;100859.27;;;6.62;51.76
54872;BME280;43914;57.680;11.982;2023-05-02T08:50:51;100858.03;;;6.63;52.42
54872;BME280;43914;57.680;11.982;2023-05-02T08:53:18;100865.67;;;6.68;51.94
54872;BME280;43914;57.680;11.982;2023-05-02T08:55:45;100870.06;;;6.70;51.69
54872;BME280;43914;57.680;11.982;2023-05-02T08:58:12;100868.54;;;6.71;52.20
54872;BME280;43914;57.680;11.982;2023-05-02T09:00:39;100879.21;;;6.77;51.16
54872;BME280;43914;57.680;11.982;2023-05-02T09:03:29;100873.98;;;6.75;50.05
54872;BME280;43914;57.680;11.982;2023-05-02T09:08:40;100877.23;;;6.80;52.17
54872;BME280;43914;57.680;11.982;2023-05-02T09:11:09;100876.84;;;6.88;53.21
54872;BME280;43914;57.680;11.982;2023-05-02T09:13:47;100879.25;;;6.93;53.02
54872;BME280;43914;57.680;11.982;2023-05-02T09:16:17;100879.82;;;7.00;53.10
54872;BME280;43914;57.680;11.982;2023-05-02T09:18:46;100885.71;;;7.06;52.07
54872;BME280;43914;57.680;11.982;2023-05-02T09:21:17;100893.91;;;7.07;51.28
54872;BME280;43914;57.680;11.982;2023-05-02T09:23:55;100904.50;;;7.08;51.22
54872;BME280;43914;57.680;11.982;2023-05-02T09:26:27;100899.91;;;7.06;51.00
54872;BME280;43914;57.680;11.982;2023-05-02T09:29:00;100900.61;;;7.06;51.70
54872;BME280;43914;57.680;11.982;2023-05-02T09:31:30;100906.63;;;7.10;52.43
54872;BME280;43914;57.680;11.982;2023-05-02T09:34:10;100908.31;;;7.20;53.09
54872;BME280;43914;57.680;11.982;2023-05-02T09:36:43;100909.02;;;7.29;52.92
54872;BME280;43914;57.680;11.982;2023-05-02T09:39:14;100914.85;;;7.29;53.44
54872;BME280;43914;57.680;11.982;2023-05-02T09:41:41;100916.94;;;7.33;53.65
54872;BME280;43914;57.680;11.982;2023-05-02T09:44:14;100922.27;;;7.35;54.12
54872;BME280;43914;57.680;11.982;2023-05-02T09:46:52;100923.23;;;7.34;53.64
54872;BME280;43914;57.680;11.982;2023-05-02T09:49:18;100924.02;;;7.37;53.44
54872;BME280;43914;57.680;11.982;2023-05-02T09:51:47;100933.73;;;7.38;53.61
54872;BME280;43914;57.680;11.982;2023-05-02T09:54:13;100939.61;;;7.42;53.49
54872;BME280;43914;57.680;11.982;2023-05-02T09:59:20;100943.96;;;7.48;53.62
54872;BME280;43914;57.680;11.982;2023-05-02T10:01:54;100947.64;;;7.48;52.97
54872;BME280;43914;57.680;11.982;2023-05-02T10:04:21;100943.34;;;7.49;52.62
54872;BME280;43914;57.680;11.982;2023-05-02T10:06:48;100946.86;;;7.53;52.90
54872;BME280;43914;57.680;11.982;2023-05-02T10:09:16;100955.20;;;7.58;51.72
54872;BME280;43914;57.680;11.982;2023-05-02T10:11:44;100948.91;;;7.60;51.89
54872;BME280;43914;57.680;11.982;2023-05-02T10:14:11;100956.73;;;7.66;51.80
54872;BME280;43914;57.680;11.982;2023-05-02T10:19:55;100960.65;;;7.75;51.08
54872;BME280;43914;57.680;11.982;2023-05-02T10:22:22;100966.83;;;7.81;51.79
54872;BME280;43914;57.680;11.982;2023-05-02T10:24:48;100965.44;;;7.85;51.60
54872;BME280;43914;57.680;11.982;2023-05-02T10:27:15;100969.59;;;7.87;50.62
54872;BME280;43914;57.680;11.982;2023-05-02T10:29:41;100967.16;;;7.89;51.08
54872;BME280;43914;57.680;11.982;2023-05-02T10:32:07;100972.66;;;7.93;51.01
54872;BME280;43914;57.680;11.982;2023-05-02T10:34:34;100972.75;;;7.98;51.07
54872;BME280;43914;57.680;11.982;2023-05-02T10:37:00;100975.11;;;8.00;51.17
54872;BME280;43914;57.680;11.982;2023-05-02T10:39:27;100986.48;;;8.04;51.38
54872;BME280;43914;57.680;11.982;2023-05-02T10:41:54;100995.52;;;8.05;50.66
54872;BME280;43914;57.680;11.982;2023-05-02T10:47:24;101002.87;;;7.98;50.41
54872;BME280;43914;57.680;11.982;2023-05-02T10:49:56;101001.20;;;8.00;51.06
54872;BME280;43914;57.680;11.982;2023-05-02T10:52:29;101000.92;;;8.06;51.27
54872;BME280;43914;57.680;11.982;2023-05-02T10:55:14;101000.55;;;8.18;51.29
54872;BME280;43914;57.680;11.982;2023-05-02T11:00:25;101005.12;;;8.28;48.51
54872;BME280;43914;57.680;11.982;2023-05-02T11:02:51;101004.83;;;8.32;49.30
54872;BME280;43914;57.680;11.982;2023-05-02T11:05:16;101003.10;;;8.36;49.74
54872;BME280;43914;57.680;11.982;2023-05-02T11:07:42;101008.43;;;8.49;50.72
54872;BME280;43914;57.680;11.982;2023-05-02T11:15:52;101018.55;;;8.66;48.88
54872;BME280;43914;57.680;11.982;2023-05-02T11:20:40;101023.92;;;8.73;46.35
54872;BME280;43914;57.680;11.982;2023-05-02T11:25:50;101029.62;;;9.00;48.39
54872;BME280;43914;57.680;11.982;2023-05-02T11:31:00;101037.43;;;9.11;47.64
54872;BME280;43914;57.680;11.982;2023-05-02T11:33:30;101033.98;;;9.09;46.92
54872;BME280;43914;57.680;11.982;2023-05-02T11:35:55;101031.10;;;9.15;46.95
54872;BME280;43914;57.680;11.982;2023-05-02T11:38:23;101032.20;;;9.16;44.61
54872;BME280;43914;57.680;11.982;2023-05-02T11:43:18;101038.52;;;9.05;44.09
54872;BME280;43914;57.680;11.982;2023-05-02T11:45:44;101039.11;;;9.05;45.14
54872;BME280;43914;57.680;11.982;2023-05-02T11:48:12;101041.42;;;9.10;46.07
54872;BME280;43914;57.680;11.982;2023-05-02T11:53:14;101052.68;;;9.07;46.17
54872;BME280;43914;57.680;11.982;2023-05-02T11:55:51;101045.41;;;9.13;47.15
54872;BME280;43914;57.680;11.982;2023-05-02T11:58:22;101049.52;;;9.36;47.38
54872;BME280;43914;57.680;11.982;2023-05-02T12:00:49;101066.71;;;9.49;46.16
54872;BME280;43914;57.680;11.982;2023-05-02T12:03:31;101069.20;;;9.56;45.61
54872;BME280;43914;57.680;11.982;2023-05-02T12:06:08;101069.94;;;9.73;45.95
54872;BME280;43914;57.680;11.982;2023-05-02T12:08:35;101079.70;;;9.94;45.64
54872;BME280;43914;57.680;11.982;2023-05-02T12:11:01;101086.36;;;10.00;44.77
54872;BME280;43914;57.680;11.982;2023-05-02T12:13:26;101084.37;;;10.03;43.93
54872;BME280;43914;57.680;11.982;2023-05-02T12:15:53;101082.49;;;10.10;43.85
54872;BME280;43914;57.680;11.982;2023-05-02T12:18:23;101081.91;;;10.27;43.03
54872;BME280;43914;57.680;11.982;2023-05-02T12:20:50;101082.31;;;10.36;42.07
54872;BME280;43914;57.680;11.982;2023-05-02T12:23:17;101083.94;;;10.55;42.56
54872;BME280;43914;57.680;11.982;2023-05-02T12:25:44;101085.25;;;10.67;41.16
54872;BME280;43914;57.680;11.982;2023-05-02T12:28:09;101092.90;;;10.81;42.08
54872;BME280;43914;57.680;11.982;2023-05-02T12:30:36;101099.46;;;10.97;42.27
54872;BME280;43914;57.680;11.982;2023-05-02T12:33:03;101093.39;;;11.09;42.44
54872;BME280;43914;57.680;11.982;2023-05-02T12:35:29;101091.69;;;11.25;42.09
54872;BME280;43914;57.680;11.982;2023-05-02T12:38:28;101100.12;;;11.35;41.11
54872;BME280;43914;57.680;11.982;2023-05-02T12:40:54;101103.83;;;11.48;41.29
54872;BME280;43914;57.680;11.982;2023-05-02T12:43:22;101104.48;;;11.62;41.27
54872;BME280;43914;57.680;11.982;2023-05-02T12:45:48;101118.41;;;11.82;41.46
54872;BME280;43914;57.680;11.982;2023-05-02T12:48:22;101111.85;;;11.95;41.18
54872;BME280;43914;57.680;11.982;2023-05-02T12:50:48;101109.07;;;12.16;41.30
54872;BME280;43914;57.680;11.982;2023-05-02T12:53:14;101110.89;;;12.40;41.39
54872;BME280;43914;57.680;11.982;2023-05-02T12:55:40;101107.59;;;12.65;40.57
54872;BME280;43914;57.680;11.982;2023-05-02T12:58:08;101104.67;;;12.93;39.79
54872;BME280;43914;57.680;11.982;2023-05-02T13:00:38;101114.26;;;13.14;38.13
54872;BME280;43914;57.680;11.982;2023-05-02T13:03:04;101110.10;;;13.25;37.30
54872;BME280;43914;57.680;11.982;2023-05-02T13:05:30;101113.57;;;13.26;36.56
54872;BME280;43914;57.680;11.982;2023-05-02T13:07:56;101106.84;;;13.37;37.75
54872;BME280;43914;57.680;11.982;2023-05-02T13:10:24;101109.13;;;13.64;37.87
54872;BME280;43914;57.680;11.982;2023-05-02T13:12:51;101111.79;;;13.75;35.75
54872;BME280;43914;57.680;11.982;2023-05-02T13:15:18;101121.98;;;13.76;35.27
54872;BME280;43914;57.680;11.982;2023-05-02T13:17:44;101118.70;;;13.88;35.84
54872;BME280;43914;57.680;11.982;2023-05-02T13:20:10;101113.02;;;14.10;36.74
54872;BME280;43914;57.680;11.982;2023-05-02T13:22:36;101122.89;;;14.11;35.46
54872;BME280;43914;57.680;11.982;2023-05-02T13:25:05;101116.36;;;14.18;36.14
54872;BME280;43914;57.680;11.982;2023-05-02T13:27:32;101125.63;;;14.44;35.39
54872;BME280;43914;57.680;11.982;2023-05-02T13:29:59;101120.64;;;14.67;35.68
54872;BME280;43914;57.680;11.982;2023-05-02T13:32:26;101119.17;;;15.00;36.43
54872;BME280;43914;57.680;11.982;2023-05-02T13:34:51;101126.80;;;15.26;34.43
54872;BME280;43914;57.680;11.982;2023-05-02T13:37:17;101120.02;;;15.33;32.71
54872;BME280;43914;57.680;11.982;2023-05-02T13:39:43;101127.69;;;15.38;32.54
54872;BME280;43914;57.680;11.982;2023-05-02T13:42:08;101132.02;;;15.39;32.67